Time;durP1;ratioP1;P1;durP2;ratioP2;P2;SDS_P1;SDS_P2;PMS_P1;PMS_P2;Temp;Humidity;BMP_temperature;BMP_pressure;BME280_temperature;BME280_humidity;BME280_pressure;Samples;Min_cycle;Max_cycle;Signal;HPM_P1;HPM_P2
2021/07/12 00:00:19;;;;;;;29.53;25.43;;;;;;;15.16;87.31;101548.28;691182;28;857;-59
2021/07/12 00:00:39;;;;;;;31.00;26.02;;;;;;;15.19;87.20;101548.16;691113;28;1534;-59
2021/07/12 00:00:59;;;;;;;31.70;26.27;;;;;;;15.20;87.19;101547.19;690968;28;979;-59
2021/07/12 00:01:20;;;;;;;31.00;25.93;;;;;;;15.22;87.20;101551.59;691244;28;998;-59
2021/07/12 00:01:40;;;;;;;30.53;25.40;;;;;;;15.24;87.04;101552.34;691290;28;845;-58
2021/07/12 00:02:02;;;;;;;30.40;25.40;;;;;;;15.20;86.89;101549.00;691125;28;943;-58
2021/07/12 00:02:22;;;;;;;30.30;26.13;;;;;;;15.16;87.16;101553.59;691235;28;939;-59
2021/07/12 00:02:42;;;;;;;30.33;26.17;;;;;;;15.19;87.05;101550.78;690873;28;896;-58
2021/07/12 00:03:05;;;;;;;31.50;26.20;;;;;;;15.22;87.10;101546.28;690913;28;979;-58
2021/07/12 00:03:25;;;;;;;29.58;25.23;;;;;;;15.23;87.12;101551.50;691172;28;1012;-59
2021/07/12 00:03:46;;;;;;;31.17;25.60;;;;;;;15.22;86.76;101543.63;691170;28;920;-58
2021/07/12 00:04:06;;;;;;;31.60;26.23;;;;;;;15.21;87.08;101548.09;691214;28;903;-59
2021/07/12 00:04:26;;;;;;;31.42;25.92;;;;;;;15.23;86.84;101550.66;691103;28;1977;-59
2021/07/12 00:04:46;;;;;;;30.23;25.90;;;;;;;15.16;86.87;101542.97;691056;28;864;-59
2021/07/12 00:05:08;;;;;;;32.60;26.73;;;;;;;15.16;87.34;101542.97;691053;28;972;-59
2021/07/12 00:05:29;;;;;;;31.08;25.95;;;;;;;15.17;87.31;101541.19;691101;28;1103;-59
2021/07/12 00:05:50;;;;;;;29.77;25.27;;;;;;;15.15;87.00;101545.72;691193;28;904;-59
2021/07/12 00:06:10;;;;;;;29.20;25.23;;;;;;;15.14;87.09;101544.88;691140;28;1027;-59
2021/07/12 00:06:30;;;;;;;29.70;25.20;;;;;;;15.13;87.19;101540.47;690844;28;1242;-59
2021/07/12 00:06:56;;;;;;;30.55;26.27;;;;;;;15.12;87.44;101543.22;690948;28;927;-59
2021/07/12 00:07:20;;;;;;;30.52;25.65;;;;;;;15.14;87.13;101542.22;690793;28;971;-59
2021/07/12 00:07:40;;;;;;;29.20;24.98;;;;;;;15.16;87.34;101540.31;690836;28;940;-59
2021/07/12 00:08:01;;;;;;;30.52;25.40;;;;;;;15.15;87.13;101543.06;690992;28;1038;-58
2021/07/12 00:08:39;;;;;;;31.50;26.13;;;;;;;15.12;87.39;101544.06;690981;28;824;-59
2021/07/12 00:09:00;;;;;;;31.63;26.52;;;;;;;15.10;87.35;101545.94;691105;28;891;-59
2021/07/12 00:09:21;;;;;;;31.65;26.38;;;;;;;15.14;87.25;101543.97;690973;28;840;-59
2021/07/12 00:09:41;;;;;;;31.07;26.40;;;;;;;15.15;87.32;101543.06;691202;28;818;-59
2021/07/12 00:10:05;;;;;;;30.80;25.60;;;;;;;15.14;87.29;101550.19;691219;28;844;-59
2021/07/12 00:10:27;;;;;;;30.20;25.77;;;;;;;15.16;87.21;101545.63;690968;28;1046;-58
2021/07/12 00:10:48;;;;;;;30.35;26.45;;;;;;;15.17;87.42;101542.06;691040;28;1799;-59
2021/07/12 00:11:08;;;;;;;32.60;26.70;;;;;;;15.16;87.55;101545.63;691178;28;923;-59
2021/07/12 00:11:29;;;;;;;32.25;26.35;;;;;;;15.17;87.42;101550.03;691044;28;777;-59
2021/07/12 00:11:49;;;;;;;32.10;26.40;;;;;;;15.18;87.38;101545.56;691245;28;876;-58
2021/07/12 00:12:09;;;;;;;31.40;26.87;;;;;;;15.16;87.26;101545.63;691141;28;800;-58
2021/07/12 00:12:30;;;;;;;32.57;26.80;;;;;;;15.18;87.44;101548.22;691234;28;871;-59
2021/07/12 00:12:51;;;;;;;30.57;25.40;;;;;;;15.19;87.56;101550.78;690744;28;880;-58
2021/07/12 00:13:11;;;;;;;31.73;25.55;;;;;;;15.20;87.21;101549.00;690845;28;1829;-59
2021/07/12 00:13:31;;;;;;;31.50;25.73;;;;;;;15.20;87.47;101549.84;691174;28;783;-59
2021/07/12 00:13:52;;;;;;;30.93;26.17;;;;;;;15.22;87.00;101547.13;691181;28;884;-59
2021/07/12 00:14:13;;;;;;;29.73;25.33;;;;;;;15.21;87.11;101542.78;691120;28;832;-59
2021/07/12 00:14:33;;;;;;;30.63;25.75;;;;;;;15.17;87.42;101552.69;691108;28;1027;-59
2021/07/12 00:14:53;;;;;;;31.83;25.93;;;;;;;15.16;87.24;101548.28;691159;28;911;-59
2021/07/12 00:15:16;;;;;;;31.02;26.00;;;;;;;15.19;87.34;101553.44;690986;28;928;-58
2021/07/12 00:15:37;;;;;;;31.30;26.05;;;;;;;15.19;87.35;101545.47;691103;28;832;-59
2021/07/12 00:15:58;;;;;;;31.98;25.85;;;;;;;15.17;87.59;101550.03;691147;28;1116;-59
2021/07/12 00:16:21;;;;;;;32.03;26.37;;;;;;;15.13;87.90;101550.25;691224;28;917;-59
2021/07/12 00:16:41;;;;;;;31.85;26.55;;;;;;;15.15;87.79;101549.22;691138;28;864;-58
2021/07/12 00:17:02;;;;;;;30.17;26.63;;;;;;;15.17;87.88;101552.69;691049;28;1016;-59
2021/07/12 00:17:22;;;;;;;30.07;26.17;;;;;;;15.22;87.68;101551.59;691236;28;976;-59
2021/07/12 00:17:44;;;;;;;31.98;26.45;;;;;;;15.17;87.77;101550.03;691121;28;1026;-58
2021/07/12 00:18:04;;;;;;;32.75;26.52;;;;;;;15.20;87.69;101546.34;691099;28;950;-58
2021/07/12 00:18:24;;;;;;;32.67;26.13;;;;;;;15.22;87.69;101543.63;691161;28;1299;-58
2021/07/12 00:18:48;;;;;;;32.63;26.13;;;;;;;15.22;87.49;101544.47;691091;28;820;-59
2021/07/12 00:19:08;;;;;;;34.25;26.33;;;;;;;15.23;87.50;101550.66;691067;28;856;-59
2021/07/12 00:19:28;;;;;;;32.10;25.90;;;;;;;15.23;87.67;101543.53;691172;28;944;-58
2021/07/12 00:19:49;;;;;;;30.13;25.20;;;;;;;15.24;87.57;101542.59;690731;28;1207;-59
2021/07/12 00:20:13;;;;;;;30.57;25.27;;;;;;;15.19;87.69;101544.63;690973;28;856;-58
2021/07/12 00:20:33;;;;;;;29.38;25.67;;;;;;;15.18;87.45;101548.22;690865;28;809;-58
2021/07/12 00:20:54;;;;;;;30.73;25.93;;;;;;;15.23;87.54;101548.00;690888;28;935;-59
2021/07/12 00:21:17;;;;;;;30.43;25.10;;;;;;;15.24;87.67;101541.75;690902;28;928;-59
2021/07/12 00:21:55;;;;;;;30.10;24.40;;;;;;;15.25;87.68;101547.00;690982;28;873;-58
2021/07/12 00:22:16;;;;;;;30.88;25.40;;;;;;;15.25;87.43;101538.16;691193;28;877;-59
2021/07/12 00:22:37;;;;;;;31.53;25.60;;;;;;;15.26;87.57;101545.19;691004;28;1022;-59
2021/07/12 00:22:57;;;;;;;33.30;26.15;;;;;;;15.26;87.14;101546.03;690775;28;1054;-58
2021/07/12 00:23:20;;;;;;;31.70;25.77;;;;;;;15.25;87.22;101548.78;691138;28;856;-58
2021/07/12 00:23:40;;;;;;;31.20;26.02;;;;;;;15.26;87.37;101545.19;691089;28;845;-59
2021/07/12 00:24:04;;;;;;;31.83;26.83;;;;;;;15.23;87.51;101546.19;691104;28;801;-58
2021/07/12 00:24:26;;;;;;;31.65;26.48;;;;;;;15.24;87.38;101536.44;690981;28;1906;-59
2021/07/12 00:24:47;;;;;;;31.60;26.20;;;;;;;15.28;87.27;101543.28;691132;28;962;-59
2021/07/12 00:25:09;;;;;;;30.42;25.58;;;;;;;15.29;87.30;101550.34;691044;28;912;-59
2021/07/12 00:25:30;;;;;;;30.40;25.73;;;;;;;15.27;87.40;101544.25;691112;28;909;-58
2021/07/12 00:25:52;;;;;;;31.35;25.80;;;;;;;15.24;87.06;101542.59;691156;28;1029;-58
2021/07/12 00:26:13;;;;;;;32.63;26.38;;;;;;;15.25;87.29;101546.13;690981;28;951;-59
2021/07/12 00:26:33;;;;;;;30.63;26.33;;;;;;;15.26;87.32;101547.84;691122;28;930;-59
2021/07/12 00:26:54;;;;;;;30.60;26.27;;;;;;;15.22;87.46;101544.47;691053;28;832;-59
2021/07/12 00:27:14;;;;;;;31.43;26.07;;;;;;;15.23;87.35;101546.19;691000;28;1010;-59
2021/07/12 00:27:35;;;;;;;31.23;25.90;;;;;;;15.24;87.56;101547.03;691149;28;829;-59
2021/07/12 00:27:57;;;;;;;31.13;26.35;;;;;;;15.24;87.51;101544.38;691178;28;962;-59
2021/07/12 00:28:17;;;;;;;31.90;26.23;;;;;;;15.23;87.21;101548.84;691071;28;1038;-59
2021/07/12 00:28:38;;;;;;;32.17;25.93;;;;;;;15.25;87.19;101548.78;691183;28;1332;-59
2021/07/12 00:28:58;;;;;;;32.80;26.50;;;;;;;15.25;87.68;101538.16;691011;28;939;-58
2021/07/12 00:29:18;;;;;;;30.70;26.65;;;;;;;15.24;87.62;101536.44;691163;28;896;-59
2021/07/12 00:29:38;;;;;;;31.10;26.10;;;;;;;15.23;87.52;101545.34;691177;28;977;-59
2021/07/12 00:30:00;;;;;;;30.47;26.00;;;;;;;15.22;87.29;101535.66;691090;28;971;-58
2021/07/12 00:30:22;;;;;;;32.92;26.42;;;;;;;15.26;87.25;101539.88;691132;28;1041;-59
2021/07/12 00:30:42;;;;;;;30.13;26.08;;;;;;;15.27;87.52;101542.44;691252;28;871;-59
2021/07/12 00:31:02;;;;;;;31.15;26.77;;;;;;;15.29;87.52;101547.69;690990;28;1124;-59
2021/07/12 00:31:23;;;;;;;30.87;26.20;;;;;;;15.29;87.44;101542.38;691202;28;867;-58
2021/07/12 00:31:43;;;;;;;30.52;25.83;;;;;;;15.30;87.14;101533.47;691054;28;1077;-59
2021/07/12 00:32:04;;;;;;;30.27;25.63;;;;;;;15.31;86.98;101543.16;691168;28;982;-59
2021/07/12 00:32:24;;;;;;;30.77;26.50;;;;;;;15.30;87.17;101536.13;691154;28;938;-59
2021/07/12 00:32:45;;;;;;;31.53;27.07;;;;;;;15.27;87.02;101531.81;690809;28;812;-58
2021/07/12 00:33:05;;;;;;;31.85;27.25;;;;;;;15.30;87.20;101546.75;691030;28;848;-59
2021/07/12 00:33:26;;;;;;;33.17;27.05;;;;;;;15.27;87.32;101536.28;691128;28;867;-58
2021/07/12 00:33:47;;;;;;;34.13;27.60;;;;;;;15.25;87.41;101539.03;691108;28;889;-59
2021/07/12 00:34:07;;;;;;;33.60;27.50;;;;;;;15.25;87.27;101538.16;691136;28;805;-59
2021/07/12 00:34:27;;;;;;;33.43;27.13;;;;;;;15.26;87.56;101531.91;691085;28;875;-59
2021/07/12 00:34:47;;;;;;;34.17;27.60;;;;;;;15.27;87.26;101530.97;691047;28;995;-58
2021/07/12 00:35:10;;;;;;;32.97;27.37;;;;;;;15.29;87.18;101539.72;690921;28;951;-59
2021/07/12 00:35:30;;;;;;;32.92;27.30;;;;;;;15.28;87.40;101530.91;691170;28;847;-58
2021/07/12 00:35:51;;;;;;;33.28;27.20;;;;;;;15.29;87.41;101537.06;691071;28;985;-58
2021/07/12 00:36:11;;;;;;;33.30;27.13;;;;;;;15.28;87.23;101528.25;691166;28;998;-58
2021/07/12 00:36:31;;;;;;;33.30;27.45;;;;;;;15.29;87.10;101535.28;691018;28;872;-59
2021/07/12 00:36:51;;;;;;;33.57;27.67;;;;;;;15.29;87.40;101535.28;691219;28;827;-58
2021/07/12 00:37:12;;;;;;;33.47;27.57;;;;;;;15.28;87.50;101524.69;691045;28;916;-59
2021/07/12 00:37:33;;;;;;;34.35;27.45;;;;;;;15.27;87.50;101526.50;691011;28;911;-59
2021/07/12 00:37:53;;;;;;;32.67;27.47;;;;;;;15.27;87.51;101520.34;691205;28;919;-58
2021/07/12 00:38:14;;;;;;;35.83;27.75;;;;;;;15.28;87.49;101525.59;691069;28;935;-58
2021/07/12 00:38:35;;;;;;;35.60;27.33;;;;;;;15.30;87.45;101530.81;690899;28;1224;-59
2021/07/12 00:38:55;;;;;;;33.95;27.95;;;;;;;15.31;87.44;101527.22;691187;28;982;-59
2021/07/12 00:39:15;;;;;;;33.23;27.50;;;;;;;15.31;87.48;101514.81;691055;28;797;-59
2021/07/12 00:39:36;;;;;;;34.20;27.83;;;;;;;15.33;87.64;101520.03;691046;28;888;-59
2021/07/12 00:39:56;;;;;;;34.75;27.90;;;;;;;15.30;87.66;101514.88;691114;28;818;-59
2021/07/12 00:40:19;;;;;;;35.03;28.53;;;;;;;15.28;87.75;101522.06;690942;28;1010;-59
2021/07/12 00:40:39;;;;;;;35.60;28.25;;;;;;;15.27;87.56;101520.34;691105;28;1031;-59
2021/07/12 00:40:59;;;;;;;33.63;27.87;;;;;;;15.26;87.73;101524.78;691106;28;931;-59
2021/07/12 00:41:20;;;;;;;33.78;28.58;;;;;;;15.25;87.73;101517.78;690901;28;1002;-58
2021/07/12 00:41:40;;;;;;;35.97;29.20;;;;;;;15.27;87.64;101525.66;691187;28;915;-59
2021/07/12 00:42:00;;;;;;;34.90;28.70;;;;;;;15.29;87.70;101514.03;691166;28;982;-59
2021/07/12 00:42:21;;;;;;;35.43;28.73;;;;;;;15.27;87.58;101520.34;691023;28;847;-58
2021/07/12 00:42:42;;;;;;;34.63;28.83;;;;;;;15.27;87.61;101521.19;690874;28;911;-59
2021/07/12 00:43:05;;;;;;;33.72;27.65;;;;;;;15.28;87.64;101514.97;690894;28;1018;-59
2021/07/12 00:43:25;;;;;;;33.45;27.85;;;;;;;15.29;87.56;101513.16;691024;28;899;-59
2021/07/12 00:43:49;;;;;;;32.05;26.45;;;;;;;15.31;87.84;101511.28;691176;28;919;-59
2021/07/12 00:44:09;;;;;;;33.00;27.42;;;;;;;15.33;87.45;101515.59;690983;28;1023;-59
2021/07/12 00:44:30;;;;;;;33.93;27.63;;;;;;;15.33;87.40;101504.97;690964;28;1960;-59
2021/07/12 00:44:50;;;;;;;33.20;26.98;;;;;;;15.33;87.59;101512.06;691012;28;804;-59
2021/07/12 00:45:20;;;;;;;33.53;26.97;;;;;;;15.34;87.67;101513.78;690988;28;838;-59
2021/07/12 00:45:40;;;;;;;33.17;27.15;;;;;;;15.34;87.56;101511.97;691094;28;895;-59
2021/07/12 00:46:01;;;;;;;32.60;26.83;;;;;;;15.31;87.46;101506.84;691027;28;862;-59
2021/07/12 00:46:21;;;;;;;32.95;27.42;;;;;;;15.31;87.44;101511.28;691161;28;856;-58
2021/07/12 00:46:42;;;;;;;31.08;26.88;;;;;;;15.30;87.62;101509.56;691003;28;999;-59
2021/07/12 00:47:05;;;;;;;32.77;27.03;;;;;;;15.29;87.45;101505.19;690994;28;875;-59
2021/07/12 00:47:25;;;;;;;31.38;26.13;;;;;;;15.29;87.55;101505.19;691055;28;879;-59
2021/07/12 00:47:47;;;;;;;31.52;26.58;;;;;;;15.29;87.52;101507.84;690922;28;801;-58
2021/07/12 00:48:10;;;;;;;33.15;27.10;;;;;;;15.31;87.56;101501.53;690820;28;1059;-59
2021/07/12 00:48:33;;;;;;;31.23;26.45;;;;;;;15.30;87.48;101501.59;690973;28;1367;-59
2021/07/12 00:48:53;;;;;;;31.60;25.77;;;;;;;15.28;87.53;101498.16;690924;28;1017;-59
2021/07/12 00:49:13;;;;;;;31.27;26.08;;;;;;;15.29;87.52;101502.53;690929;28;991;-59
2021/07/12 00:49:35;;;;;;;32.37;26.97;;;;;;;15.25;87.58;101498.34;690977;28;1034;-59
2021/07/12 00:49:55;;;;;;;32.05;26.67;;;;;;;15.20;87.72;101494.09;691135;28;955;-59
2021/07/12 00:50:17;;;;;;;32.37;27.20;;;;;;;15.20;87.88;101498.53;691085;28;1026;-58
2021/07/12 00:50:39;;;;;;;33.30;27.05;;;;;;;15.19;87.67;101503.00;690962;28;1011;-58
2021/07/12 00:51:00;;;;;;;32.25;26.17;;;;;;;15.18;87.75;101500.44;690836;28;1299;-59
2021/07/12 00:51:23;;;;;;;30.77;25.92;;;;;;;15.18;87.76;101506.59;691020;28;868;-59
2021/07/12 00:51:43;;;;;;;32.25;26.88;;;;;;;15.19;87.68;101497.69;690928;28;913;-59
2021/07/12 00:52:04;;;;;;;32.80;26.77;;;;;;;15.19;87.60;101495.03;691108;28;1069;-59
2021/07/12 00:52:27;;;;;;;32.13;26.38;;;;;;;15.18;87.89;101501.28;690898;28;1003;-59
2021/07/12 00:52:50;;;;;;;30.92;26.50;;;;;;;15.23;87.91;101497.53;690632;28;840;-58
2021/07/12 00:53:11;;;;;;;32.40;26.70;;;;;;;15.22;87.79;101498.50;690907;28;929;-58
2021/07/12 00:53:32;;;;;;;32.47;27.10;;;;;;;15.21;87.77;101505.59;691020;28;875;-59
2021/07/12 00:53:52;;;;;;;32.17;27.10;;;;;;;15.20;87.63;101499.41;690971;28;924;-59
2021/07/12 00:54:13;;;;;;;31.00;26.20;;;;;;;15.25;87.77;101501.00;691054;28;856;-59
2021/07/12 00:54:35;;;;;;;30.48;26.02;;;;;;;15.24;87.53;101501.91;691086;28;911;-59
2021/07/12 00:54:56;;;;;;;33.30;26.65;;;;;;;15.22;87.61;101501.16;691036;28;1046;-59
2021/07/12 00:55:31;;;;;;;31.63;25.93;;;;;;;15.21;87.57;101505.59;690814;28;1046;-59
2021/07/12 00:55:51;;;;;;;32.08;26.77;;;;;;;15.22;87.83;101499.34;690978;28;1995;-58
2021/07/12 00:56:12;;;;;;;31.10;25.75;;;;;;;15.23;87.75;101502.84;690940;28;959;-59
2021/07/12 00:56:33;;;;;;;32.22;26.63;;;;;;;15.24;87.49;101500.09;691065;28;1177;-59
2021/07/12 00:56:54;;;;;;;32.05;26.65;;;;;;;15.26;87.66;101508.00;691074;28;889;-59
2021/07/12 00:57:15;;;;;;;31.77;26.75;;;;;;;15.24;87.65;101500.09;690841;28;978;-59
2021/07/12 00:57:35;;;;;;;32.03;26.58;;;;;;;15.20;87.51;101509.16;691090;28;876;-59
2021/07/12 00:57:56;;;;;;;31.67;26.67;;;;;;;15.20;87.62;101515.34;690936;28;1041;-58
2021/07/12 00:58:59;;;;;;;31.73;26.67;;;;;;;15.24;87.45;101500.09;690357;28;1390;-59
2021/07/12 00:59:20;;;;;;;32.47;27.05;;;;;;;15.25;87.28;101511.63;690697;28;1115;-59
2021/07/12 00:59:41;;;;;;;32.97;27.10;;;;;;;15.24;87.66;101510.72;691049;28;1014;-59
2021/07/12 01:00:02;;;;;;;32.57;26.40;;;;;;;15.23;87.57;101502.84;690727;28;989;-58
2021/07/12 01:00:24;;;;;;;31.08;26.02;;;;;;;15.24;87.62;101501.91;690835;28;902;-59
2021/07/12 01:00:48;;;;;;;31.92;26.30;;;;;;;15.23;87.36;101502.84;690683;28;1042;-59
2021/07/12 01:01:08;;;;;;;32.30;26.38;;;;;;;15.20;87.35;101496.75;690788;28;900;-59
2021/07/12 01:01:30;;;;;;;31.60;26.00;;;;;;;15.20;87.52;101496.75;690653;28;968;-59
2021/07/12 01:01:50;;;;;;;32.50;26.30;;;;;;;15.22;87.66;101501.16;690892;28;1034;-59
2021/07/12 01:02:10;;;;;;;31.95;26.00;;;;;;;15.20;87.60;101503.84;691028;28;931;-59
2021/07/12 01:02:31;;;;;;;31.27;26.27;;;;;;;15.22;87.85;101495.84;690785;28;987;-59
2021/07/12 01:02:52;;;;;;;33.77;26.97;;;;;;;15.22;87.48;101496.69;690334;28;872;-59
2021/07/12 01:03:13;;;;;;;33.22;26.27;;;;;;;15.24;87.49;101500.09;690854;28;1085;-59
2021/07/12 01:03:35;;;;;;;32.15;25.90;;;;;;;15.26;87.88;101502.69;690758;28;962;-59
2021/07/12 01:03:56;;;;;;;31.45;25.75;;;;;;;15.24;87.90;101497.44;690696;28;1326;-59
2021/07/12 01:04:17;;;;;;;33.20;26.70;;;;;;;15.25;87.67;101501.00;690825;28;951;-59
2021/07/12 01:04:37;;;;;;;33.35;27.00;;;;;;;15.23;87.78;101502.84;690926;28;1988;-58
2021/07/12 01:04:58;;;;;;;33.97;27.80;;;;;;;15.23;87.55;101500.19;691122;28;826;-58
2021/07/12 01:05:20;;;;;;;33.85;27.65;;;;;;;15.24;87.55;101494.78;690885;28;803;-59
2021/07/12 01:05:41;;;;;;;32.60;27.05;;;;;;;15.25;87.42;101490.38;690823;28;1368;-58
2021/07/12 01:06:03;;;;;;;31.27;26.70;;;;;;;15.28;87.49;101503.47;691120;28;867;-59
2021/07/12 01:06:25;;;;;;;32.85;27.90;;;;;;;15.29;87.46;101497.25;690887;28;810;-58
2021/07/12 01:06:45;;;;;;;32.83;27.30;;;;;;;15.30;87.54;101498.94;691095;28;955;-59
2021/07/12 01:07:10;;;;;;;32.47;27.63;;;;;;;15.29;87.59;101494.56;691011;28;1031;-58
2021/07/12 01:07:30;;;;;;;31.95;27.00;;;;;;;15.30;87.30;101493.63;690979;28;938;-59
2021/07/12 01:07:53;;;;;;;33.93;27.20;;;;;;;15.29;87.31;101494.56;691080;28;1006;-59
2021/07/12 01:08:16;;;;;;;32.47;26.25;;;;;;;15.31;87.43;101500.66;690981;28;1350;-59
2021/07/12 01:08:43;;;;;;;31.80;26.35;;;;;;;15.32;87.41;101499.75;690918;28;904;-58
2021/07/12 01:09:04;;;;;;;30.88;26.38;;;;;;;15.33;87.33;101493.47;690968;28;1454;-59
2021/07/12 01:09:24;;;;;;;31.50;27.03;;;;;;;15.31;87.09;101492.69;690846;28;958;-59
2021/07/12 01:09:45;;;;;;;33.15;27.92;;;;;;;15.29;87.22;101491.91;690931;28;872;-59
2021/07/12 01:10:09;;;;;;;33.00;28.10;;;;;;;15.30;87.28;101493.63;691112;28;797;-59
2021/07/12 01:10:30;;;;;;;33.88;27.27;;;;;;;15.31;87.25;101496.22;690947;28;877;-59
2021/07/12 01:11:18;;;;;;;33.05;26.85;;;;;;;15.30;87.25;101496.28;691150;28;911;-59
2021/07/12 01:12:14;;;;;;;33.25;27.13;;;;;;;15.32;87.09;101497.09;691045;28;852;-59
2021/07/12 01:12:42;;;;;;;33.78;28.08;;;;;;;15.24;87.12;101489.47;691008;28;849;-59
2021/07/12 01:13:37;;;;;;;33.65;27.60;;;;;;;15.23;87.40;101492.22;690832;28;875;-59
2021/07/12 01:14:02;;;;;;;32.90;27.10;;;;;;;15.25;87.62;101490.38;690781;28;911;-59
2021/07/12 01:14:41;;;;;;;33.63;27.27;;;;;;;15.26;87.39;101492.06;691022;28;880;-59
2021/07/12 01:15:15;;;;;;;33.13;27.27;;;;;;;15.27;87.51;101489.31;690966;28;974;-59
2021/07/12 01:15:46;;;;;;;33.95;28.17;;;;;;;15.26;87.32;101489.41;690896;28;935;-59
2021/07/12 01:16:15;;;;;;;32.90;26.95;;;;;;;15.22;87.53;101486.06;690765;28;901;-59
2021/07/12 01:16:45;;;;;;;34.17;28.02;;;;;;;15.24;87.20;101491.28;691010;28;951;-59
2021/07/12 01:17:17;;;;;;;33.90;28.17;;;;;;;15.20;87.51;101493.25;690942;28;854;-59
2021/07/12 01:18:00;;;;;;;34.35;28.65;;;;;;;15.21;87.66;101494.97;690972;28;805;-59
2021/07/12 01:18:47;;;;;;;34.75;28.33;;;;;;;15.22;87.55;101495.84;690869;28;1313;-59
2021/07/12 01:19:50;;;;;;;35.42;28.63;;;;;;;15.22;87.77;101491.38;691053;28;963;-58
2021/07/12 01:20:58;;;;;;;35.17;28.08;;;;;;;15.22;87.81;101490.53;690930;28;1119;-59
2021/07/12 01:21:46;;;;;;;34.10;28.85;;;;;;;15.18;87.78;101501.28;690915;28;971;-60
2021/07/12 01:22:30;;;;;;;35.63;29.02;;;;;;;15.18;87.63;101501.28;691066;28;1018;-59
2021/07/12 01:23:11;;;;;;;36.58;29.48;;;;;;;15.18;87.88;101501.28;690482;28;1714;-59
2021/07/12 01:23:53;;;;;;;33.95;28.88;;;;;;;15.15;88.00;101500.59;690874;28;1093;-59
2021/07/12 01:24:50;;;;;;;35.88;29.27;;;;;;;15.13;88.03;101502.44;690960;28;884;-59
2021/07/12 01:25:48;;;;;;;35.30;29.60;;;;;;;15.13;88.29;101502.44;690897;28;852;-59
2021/07/12 01:26:53;;;;;;;37.25;28.95;;;;;;;15.16;87.87;101499.66;690947;28;1038;-59
2021/07/12 01:27:43;;;;;;;34.90;28.77;;;;;;;15.19;87.95;101497.69;690882;28;833;-59
2021/07/12 01:28:25;;;;;;;35.72;28.70;;;;;;;15.18;87.86;101495.13;690945;28;888;-59
2021/07/12 01:29:08;;;;;;;36.70;28.73;;;;;;;15.19;87.93;101496.84;690894;28;1840;-59
2021/07/12 01:30:07;;;;;;;37.38;29.35;;;;;;;15.17;88.00;101490.72;690927;28;925;-59
2021/07/12 01:31:03;;;;;;;35.47;28.90;;;;;;;15.21;87.92;101487.00;687858;28;1475;-59
2021/07/12 01:32:00;;;;;;;37.40;29.10;;;;;;;15.24;87.93;101493.94;690883;28;942;-59
2021/07/12 01:32:37;;;;;;;36.85;29.45;;;;;;;15.20;87.81;101486.13;690883;28;1011;-59
2021/07/12 01:33:17;;;;;;;38.20;30.40;;;;;;;15.20;87.82;101493.25;690619;28;959;-59
2021/07/12 01:33:47;;;;;;;37.33;29.90;;;;;;;15.19;87.58;101487.06;690681;28;908;-59
2021/07/12 01:34:23;;;;;;;37.72;29.80;;;;;;;15.19;87.56;101479.09;690914;28;840;-59
2021/07/12 01:34:49;;;;;;;36.72;29.42;;;;;;;15.20;87.52;101488.78;690811;28;924;-59
2021/07/12 01:35:18;;;;;;;35.95;29.55;;;;;;;15.22;87.54;101486.06;690927;28;876;-59
2021/07/12 01:35:55;;;;;;;36.65;29.38;;;;;;;15.24;87.60;101486.81;690820;28;943;-59
2021/07/12 01:36:36;;;;;;;34.65;28.35;;;;;;;15.26;87.47;101487.63;690891;28;884;-59
2021/07/12 01:36:58;;;;;;;35.15;28.70;;;;;;;15.23;87.42;101486.91;690933;28;834;-59
2021/07/12 01:37:50;;;;;;;35.47;29.00;;;;;;;15.25;87.43;101485.91;690860;28;963;-59
2021/07/12 01:38:10;;;;;;;35.35;28.65;;;;;;;15.25;87.41;101485.06;690930;28;1304;-59
2021/07/12 01:39:01;;;;;;;36.27;29.30;;;;;;;15.24;87.41;101489.47;690450;28;1348;-59
2021/07/12 01:39:30;;;;;;;36.33;29.00;;;;;;;15.22;87.34;101482.56;690832;28;943;-58
2021/07/12 01:40:25;;;;;;;37.00;29.55;;;;;;;15.20;87.52;101483.47;690864;28;913;-59
2021/07/12 01:40:49;;;;;;;36.33;29.85;;;;;;;15.20;87.55;101488.78;689713;28;1701;-60
2021/07/12 01:41:19;;;;;;;37.05;29.70;;;;;;;15.20;87.48;101488.78;690828;28;829;-58
2021/07/12 01:42:23;;;;;;;37.28;29.77;;;;;;;15.14;87.76;101488.22;690876;28;870;-58
2021/07/12 01:43:08;;;;;;;36.90;29.00;;;;;;;15.14;87.93;101494.44;690483;28;1112;-59
2021/07/12 01:43:43;;;;;;;37.40;29.85;;;;;;;15.17;87.90;101486.31;690864;28;915;-59
2021/07/12 01:44:07;;;;;;;36.13;29.30;;;;;;;15.16;87.68;101487.22;690837;28;967;-58
2021/07/12 01:45:04;;;;;;;35.58;29.38;;;;;;;15.15;87.77;101488.16;690892;28;1910;-59
2021/07/12 01:45:29;;;;;;;34.97;29.23;;;;;;;15.17;87.93;101491.63;690678;28;1164;-59
2021/07/12 01:46:02;;;;;;;34.70;28.88;;;;;;;15.17;87.86;101486.31;690855;28;1046;-59
2021/07/12 01:46:35;;;;;;;38.92;30.50;;;;;;;15.16;87.72;101486.38;690992;28;819;-59
2021/07/12 01:47:11;;;;;;;36.17;29.55;;;;;;;15.16;87.69;101481.06;690888;28;903;-59
2021/07/12 01:47:44;;;;;;;36.17;28.98;;;;;;;15.18;88.06;101481.84;690730;28;952;-58
2021/07/12 01:48:22;;;;;;;37.35;29.42;;;;;;;15.15;87.88;101485.50;690911;28;864;-59
2021/07/12 01:48:48;;;;;;;38.08;30.92;;;;;;;15.17;88.12;101483.66;690821;28;905;-58
2021/07/12 01:49:32;;;;;;;37.40;30.65;;;;;;;15.17;88.04;101478.34;690919;28;915;-58
2021/07/12 01:50:01;;;;;;;36.03;29.75;;;;;;;15.17;88.09;101483.66;690803;28;1015;-58
2021/07/12 01:50:35;;;;;;;37.38;29.90;;;;;;;15.18;87.92;101473.88;690852;28;1554;-58
2021/07/12 01:51:01;;;;;;;37.15;29.77;;;;;;;15.18;88.02;101474.75;690948;28;876;-58
2021/07/12 01:51:29;;;;;;;37.03;29.83;;;;;;;15.20;87.72;101475.50;690741;28;1500;-58
2021/07/12 01:52:09;;;;;;;37.45;30.25;;;;;;;15.20;87.74;101472.84;690843;28;816;-58
2021/07/12 01:52:47;;;;;;;36.25;29.52;;;;;;;15.20;87.96;101472.84;690834;28;800;-59
2021/07/12 01:53:20;;;;;;;36.38;29.73;;;;;;;15.19;87.66;101471.13;690959;28;868;-59
2021/07/12 01:54:08;;;;;;;35.70;28.85;;;;;;;15.13;87.76;101471.44;690875;28;926;-59
2021/07/12 01:54:57;;;;;;;34.38;28.75;;;;;;;15.10;87.87;101473.41;690927;28;970;-59
2021/07/12 01:55:24;;;;;;;35.83;29.05;;;;;;;15.06;88.02;101474.50;687716;28;1015;-59
2021/07/12 01:55:50;;;;;;;35.55;28.80;;;;;;;15.06;88.35;101485.97;690099;28;1237;-58
2021/07/12 01:56:16;;;;;;;35.08;28.95;;;;;;;15.08;87.99;101472.63;690850;28;975;-58
2021/07/12 01:56:42;;;;;;;36.63;29.60;;;;;;;15.07;88.16;101477.09;690984;28;841;-58
2021/07/12 01:57:06;;;;;;;34.35;28.65;;;;;;;15.08;87.99;101478.81;690747;28;1066;-61
2021/07/12 01:57:31;;;;;;;37.42;29.15;;;;;;;15.10;88.33;101476.91;690748;28;1865;-58
2021/07/12 01:57:57;;;;;;;40.17;29.90;;;;;;;15.07;88.07;101474.44;690743;28;1035;-59
2021/07/12 01:58:30;;;;;;;35.63;29.15;;;;;;;15.10;87.94;101476.91;690806;28;1296;-59
2021/07/12 01:59:18;;;;;;;35.10;28.63;;;;;;;15.11;88.13;101476.00;690957;28;928;-59
2021/07/12 01:59:56;;;;;;;34.72;28.00;;;;;;;15.11;87.87;101478.66;690410;28;2156;-59
2021/07/12 02:00:18;;;;;;;36.42;29.63;;;;;;;15.11;87.82;101481.31;690869;28;874;-59
2021/07/12 02:00:43;;;;;;;37.80;30.15;;;;;;;15.13;87.91;101481.22;690921;28;954;-59
2021/07/12 02:01:10;;;;;;;36.45;28.92;;;;;;;15.09;87.72;101475.19;690865;28;1163;-58
2021/07/12 02:01:38;;;;;;;37.45;29.55;;;;;;;15.07;87.75;101469.13;690837;28;826;-59
2021/07/12 02:02:00;;;;;;;37.75;30.05;;;;;;;15.10;87.63;101478.72;690744;28;923;-59
2021/07/12 02:02:24;;;;;;;36.55;30.20;;;;;;;15.11;87.95;101472.47;690933;28;881;-59
2021/07/12 02:02:47;;;;;;;37.15;30.27;;;;;;;15.10;87.78;101471.59;690495;28;907;-60
2021/07/12 02:03:08;;;;;;;36.55;29.48;;;;;;;15.14;87.53;101472.31;690885;28;846;-60
2021/07/12 02:03:31;;;;;;;35.08;28.95;;;;;;;15.11;87.70;101476.00;690893;28;1007;-60
2021/07/12 02:03:53;;;;;;;35.35;29.65;;;;;;;15.13;87.87;101471.44;690710;28;970;-59